sensor_id;sensor_type;location;lat;lon;timestamp;pressure;altitude;pressure_sealevel;temperature;humidity
49461;BME280;35355;49.198;-0.368;2023-09-30T00:00:08;102014.84;;;14.27;66.70
49461;BME280;35355;49.198;-0.368;2023-09-30T00:02:34;102024.50;;;14.29;66.73
49461;BME280;35355;49.198;-0.368;2023-09-30T00:05:02;102030.81;;;14.30;66.40
49461;BME280;35355;49.198;-0.368;2023-09-30T00:07:29;102044.88;;;14.33;66.46
49461;BME280;35355;49.198;-0.368;2023-09-30T00:09:54;102049.78;;;14.31;66.20
49461;BME280;35355;49.198;-0.368;2023-09-30T00:12:20;102051.63;;;14.26;66.06
49461;BME280;35355;49.198;-0.368;2023-09-30T00:14:45;102077.47;;;14.25;66.22
49461;BME280;35355;49.198;-0.368;2023-09-30T00:17:13;102065.31;;;14.20;66.19
49461;BME280;35355;49.198;-0.368;2023-09-30T00:19:39;102065.81;;;14.17;65.82
49461;BME280;35355;49.198;-0.368;2023-09-30T00:22:05;102073.97;;;14.12;65.73
49461;BME280;35355;49.198;-0.368;2023-09-30T00:24:30;102076.06;;;14.05;65.82
49461;BME280;35355;49.198;-0.368;2023-09-30T00:26:58;102084.25;;;14.00;65.95
49461;BME280;35355;49.198;-0.368;2023-09-30T00:29:24;102087.50;;;13.97;66.25
49461;BME280;35355;49.198;-0.368;2023-09-30T00:31:49;102098.13;;;13.93;66.26
49461;BME280;35355;49.198;-0.368;2023-09-30T00:34:14;102087.91;;;13.89;66.26
49461;BME280;35355;49.198;-0.368;2023-09-30T00:36:40;102077.75;;;13.89;66.42
49461;BME280;35355;49.198;-0.368;2023-09-30T00:39:07;102084.91;;;13.90;66.69
49461;BME280;35355;49.198;-0.368;2023-09-30T00:41:33;102080.03;;;13.92;66.76
49461;BME280;35355;49.198;-0.368;2023-09-30T00:43:59;102071.53;;;13.94;66.86
49461;BME280;35355;49.198;-0.368;2023-09-30T00:46:36;102076.41;;;13.92;66.37
49461;BME280;35355;49.198;-0.368;2023-09-30T00:49:02;102084.75;;;13.97;66.57
49461;BME280;35355;49.198;-0.368;2023-09-30T00:51:28;102092.97;;;13.97;66.62
49461;BME280;35355;49.198;-0.368;2023-09-30T00:53:57;102080.28;;;13.91;66.21
49461;BME280;35355;49.198;-0.368;2023-09-30T00:56:27;102089.38;;;13.96;66.63
49461;BME280;35355;49.198;-0.368;2023-09-30T00:58:55;102093.50;;;13.94;66.32
49461;BME280;35355;49.198;-0.368;2023-09-30T01:01:21;102100.56;;;13.90;66.01
49461;BME280;35355;49.198;-0.368;2023-09-30T01:03:47;102102.13;;;13.85;66.45
49461;BME280;35355;49.198;-0.368;2023-09-30T01:06:13;102113.63;;;13.82;66.18
49461;BME280;35355;49.198;-0.368;2023-09-30T01:08:39;102110.78;;;13.77;66.25
49461;BME280;35355;49.198;-0.368;2023-09-30T01:11:05;102096.97;;;13.72;66.29
49461;BME280;35355;49.198;-0.368;2023-09-30T01:13:34;102103.78;;;13.69;66.31
49461;BME280;35355;49.198;-0.368;2023-09-30T01:16:08;102099.31;;;13.63;65.99
49461;BME280;35355;49.198;-0.368;2023-09-30T01:18:41;102081.19;;;13.62;66.25
49461;BME280;35355;49.198;-0.368;2023-09-30T01:21:08;102095.16;;;13.61;66.41
49461;BME280;35355;49.198;-0.368;2023-09-30T01:23:35;102101.72;;;13.60;66.69
49461;BME280;35355;49.198;-0.368;2023-09-30T01:26:10;102109.34;;;13.58;66.70
49461;BME280;35355;49.198;-0.368;2023-09-30T01:28:37;102112.09;;;13.58;66.78
49461;BME280;35355;49.198;-0.368;2023-09-30T01:31:03;102110.94;;;13.54;66.64
49461;BME280;35355;49.198;-0.368;2023-09-30T01:33:29;102116.41;;;13.54;66.80
49461;BME280;35355;49.198;-0.368;2023-09-30T01:35:54;102110.44;;;13.57;66.86
49461;BME280;35355;49.198;-0.368;2023-09-30T01:38:20;102106.03;;;13.56;66.92
49461;BME280;35355;49.198;-0.368;2023-09-30T01:40:46;102110.44;;;13.57;66.80
49461;BME280;35355;49.198;-0.368;2023-09-30T01:43:13;102106.03;;;13.56;66.83
49461;BME280;35355;49.198;-0.368;2023-09-30T01:45:41;102110.69;;;13.55;66.67
49461;BME280;35355;49.198;-0.368;2023-09-30T01:48:07;102109.28;;;13.53;66.70
49461;BME280;35355;49.198;-0.368;2023-09-30T01:50:38;102104.31;;;13.49;66.71
49461;BME280;35355;49.198;-0.368;2023-09-30T01:53:05;102101.81;;;13.48;66.79
49461;BME280;35355;49.198;-0.368;2023-09-30T01:55:32;102102.88;;;13.47;67.07
49461;BME280;35355;49.198;-0.368;2023-09-30T01:57:58;102099.31;;;13.46;66.87
49461;BME280;35355;49.198;-0.368;2023-09-30T02:00:26;102095.16;;;13.44;66.77
49461;BME280;35355;49.198;-0.368;2023-09-30T02:02:56;102098.72;;;13.44;66.51
49461;BME280;35355;49.198;-0.368;2023-09-30T02:05:22;102082.19;;;13.39;67.01
49461;BME280;35355;49.198;-0.368;2023-09-30T02:07:49;102081.56;;;13.37;67.04
49461;BME280;35355;49.198;-0.368;2023-09-30T02:10:15;102084.06;;;13.39;67.33
49461;BME280;35355;49.198;-0.368;2023-09-30T02:12:40;102080.00;;;13.41;67.50
49461;BME280;35355;49.198;-0.368;2023-09-30T02:15:06;102085.81;;;13.45;67.48
49461;BME280;35355;49.198;-0.368;2023-09-30T02:17:32;102083.44;;;13.48;67.22
49461;BME280;35355;49.198;-0.368;2023-09-30T02:19:58;102082.69;;;13.53;67.31
49461;BME280;35355;49.198;-0.368;2023-09-30T02:22:23;102073.13;;;13.56;67.62
49461;BME280;35355;49.198;-0.368;2023-09-30T02:24:50;102071.81;;;13.58;67.41
49461;BME280;35355;49.198;-0.368;2023-09-30T02:27:16;102079.28;;;13.63;67.31
49461;BME280;35355;49.198;-0.368;2023-09-30T02:29:42;102081.53;;;13.66;67.51
49461;BME280;35355;49.198;-0.368;2023-09-30T02:32:07;102076.03;;;13.66;67.19
49461;BME280;35355;49.198;-0.368;2023-09-30T02:34:34;102064.56;;;13.69;67.13
49461;BME280;35355;49.198;-0.368;2023-09-30T02:37:00;102067.31;;;13.69;66.94
49461;BME280;35355;49.198;-0.368;2023-09-30T02:39:26;102049.09;;;13.63;66.84
49461;BME280;35355;49.198;-0.368;2023-09-30T02:41:51;102060.41;;;13.66;66.75
49461;BME280;35355;49.198;-0.368;2023-09-30T02:44:17;102046.94;;;13.65;67.06
49461;BME280;35355;49.198;-0.368;2023-09-30T02:46:43;102048.00;;;13.64;66.85
49461;BME280;35355;49.198;-0.368;2023-09-30T02:49:08;102050.75;;;13.64;66.94
49461;BME280;35355;49.198;-0.368;2023-09-30T02:51:34;102046.94;;;13.65;66.97
49461;BME280;35355;49.198;-0.368;2023-09-30T02:53:59;102046.94;;;13.65;66.98
49461;BME280;35355;49.198;-0.368;2023-09-30T02:56:25;102038.13;;;13.63;66.87
49461;BME280;35355;49.198;-0.368;2023-09-30T02:58:52;102047.50;;;13.67;66.78
49461;BME280;35355;49.198;-0.368;2023-09-30T03:01:17;102054.91;;;13.66;66.69
49461;BME280;35355;49.198;-0.368;2023-09-30T03:03:43;102047.75;;;13.65;66.71
49461;BME280;35355;49.198;-0.368;2023-09-30T03:06:10;102044.44;;;13.63;66.49
49461;BME280;35355;49.198;-0.368;2023-09-30T03:08:36;102052.09;;;13.61;66.58
49461;BME280;35355;49.198;-0.368;2023-09-30T03:11:01;102067.72;;;13.61;66.63
49461;BME280;35355;49.198;-0.368;2023-09-30T03:13:27;102052.81;;;13.57;66.34
49461;BME280;35355;49.198;-0.368;2023-09-30T03:15:52;102050.56;;;13.54;66.04
49461;BME280;35355;49.198;-0.368;2023-09-30T03:18:18;102033.94;;;13.43;65.95
49461;BME280;35355;49.198;-0.368;2023-09-30T03:20:48;102016.34;;;13.39;66.07
49461;BME280;35355;49.198;-0.368;2023-09-30T03:23:15;102004.69;;;13.32;66.54
49461;BME280;35355;49.198;-0.368;2023-09-30T03:25:41;102002.44;;;13.29;66.44
49461;BME280;35355;49.198;-0.368;2023-09-30T03:28:07;102006.84;;;13.30;66.95
49461;BME280;35355;49.198;-0.368;2023-09-30T03:30:32;102021.66;;;13.29;66.82
49461;BME280;35355;49.198;-0.368;2023-09-30T03:32:58;102027.44;;;13.32;66.51
49461;BME280;35355;49.198;-0.368;2023-09-30T03:35:23;102027.69;;;13.31;66.73
49461;BME280;35355;49.198;-0.368;2023-09-30T03:37:49;102029.88;;;13.29;66.89
49461;BME280;35355;49.198;-0.368;2023-09-30T03:40:15;102025.47;;;13.28;66.99
49461;BME280;35355;49.198;-0.368;2023-09-30T03:42:45;102032.63;;;13.29;66.97
49461;BME280;35355;49.198;-0.368;2023-09-30T03:45:11;102035.09;;;13.30;66.85
49461;BME280;35355;49.198;-0.368;2023-09-30T03:47:39;102042.47;;;13.30;66.91
49461;BME280;35355;49.198;-0.368;2023-09-30T03:50:06;102045.72;;;13.27;67.36
49461;BME280;35355;49.198;-0.368;2023-09-30T03:52:38;102065.50;;;13.29;67.16
49461;BME280;35355;49.198;-0.368;2023-09-30T03:55:04;102072.16;;;13.33;67.43
49461;BME280;35355;49.198;-0.368;2023-09-30T03:57:31;102057.63;;;13.32;67.17
49461;BME280;35355;49.198;-0.368;2023-09-30T04:00:01;102050.19;;;13.33;67.15
49461;BME280;35355;49.198;-0.368;2023-09-30T04:02:31;102050.44;;;13.31;67.35
49461;BME280;35355;49.198;-0.368;2023-09-30T04:04:56;102062.03;;;13.33;67.63
49461;BME280;35355;49.198;-0.368;2023-09-30T04:07:25;102073.00;;;13.33;67.36
49461;BME280;35355;49.198;-0.368;2023-09-30T04:09:54;102074.44;;;13.36;67.25
49461;BME280;35355;49.198;-0.368;2023-09-30T04:12:20;102054.06;;;13.32;67.22
49461;BME280;35355;49.198;-0.368;2023-09-30T04:14:46;102041.41;;;13.31;67.22
49461;BME280;35355;49.198;-0.368;2023-09-30T04:17:11;102039.25;;;13.33;67.12
49461;BME280;35355;49.198;-0.368;2023-09-30T04:19:37;102038.41;;;13.32;67.53
49461;BME280;35355;49.198;-0.368;2023-09-30T04:22:03;102041.16;;;13.32;67.22
49461;BME280;35355;49.198;-0.368;2023-09-30T04:24:29;102034.25;;;13.30;67.53
49461;BME280;35355;49.198;-0.368;2023-09-30T04:26:54;102043.91;;;13.32;67.45
49461;BME280;35355;49.198;-0.368;2023-09-30T04:29:25;102045.56;;;13.33;67.41
49461;BME280;35355;49.198;-0.368;2023-09-30T04:31:50;102037.13;;;13.35;67.40
49461;BME280;35355;49.198;-0.368;2023-09-30T04:34:17;102019.22;;;13.32;66.97
49461;BME280;35355;49.198;-0.368;2023-09-30T04:36:43;102013.72;;;13.32;67.17
49461;BME280;35355;49.198;-0.368;2023-09-30T04:39:08;102020.22;;;13.26;67.31
49461;BME280;35355;49.198;-0.368;2023-09-30T04:41:35;102027.38;;;13.27;67.23
49461;BME280;35355;49.198;-0.368;2023-09-30T04:44:01;102019.41;;;13.26;67.24
49461;BME280;35355;49.198;-0.368;2023-09-30T04:46:26;102014.16;;;13.24;67.07
49461;BME280;35355;49.198;-0.368;2023-09-30T04:48:52;102011.66;;;13.23;67.16
49461;BME280;35355;49.198;-0.368;2023-09-30T04:51:17;101983.59;;;13.15;67.43
49461;BME280;35355;49.198;-0.368;2023-09-30T04:53:44;101982.34;;;13.23;67.47
49461;BME280;35355;49.198;-0.368;2023-09-30T04:56:12;101982.34;;;13.23;67.46
49461;BME280;35355;49.198;-0.368;2023-09-30T04:58:37;101986.25;;;13.27;67.40
49461;BME280;35355;49.198;-0.368;2023-09-30T05:01:03;101983.75;;;13.26;67.35
49461;BME280;35355;49.198;-0.368;2023-09-30T05:03:28;101977.16;;;13.27;67.18
49461;BME280;35355;49.198;-0.368;2023-09-30T05:05:54;101994.22;;;13.29;67.21
49461;BME280;35355;49.198;-0.368;2023-09-30T05:08:23;101990.56;;;13.23;67.24
49461;BME280;35355;49.198;-0.368;2023-09-30T05:10:49;101997.38;;;13.21;67.03
49461;BME280;35355;49.198;-0.368;2023-09-30T05:13:14;102003.41;;;13.23;66.70
49461;BME280;35355;49.198;-0.368;2023-09-30T05:15:40;102005.84;;;13.19;66.71
49461;BME280;35355;49.198;-0.368;2023-09-30T05:18:07;102008.50;;;13.14;66.72
49461;BME280;35355;49.198;-0.368;2023-09-30T05:20:35;102006.47;;;13.09;66.58
49461;BME280;35355;49.198;-0.368;2023-09-30T05:23:02;102007.47;;;13.03;66.30
49461;BME280;35355;49.198;-0.368;2023-09-30T05:25:28;102009.53;;;12.96;66.40
49461;BME280;35355;49.198;-0.368;2023-09-30T05:27:53;102016.88;;;12.90;66.98
49461;BME280;35355;49.198;-0.368;2023-09-30T05:30:19;102017.56;;;12.86;66.86
49461;BME280;35355;49.198;-0.368;2023-09-30T05:32:46;102010.94;;;12.81;67.12
49461;BME280;35355;49.198;-0.368;2023-09-30T05:35:12;102021.91;;;12.81;67.12
49461;BME280;35355;49.198;-0.368;2023-09-30T05:37:41;102019.16;;;12.81;66.87
49461;BME280;35355;49.198;-0.368;2023-09-30T05:40:08;102020.81;;;12.82;67.50
49461;BME280;35355;49.198;-0.368;2023-09-30T05:42:50;102020.56;;;12.84;67.37
49461;BME280;35355;49.198;-0.368;2023-09-30T05:45:19;102021.16;;;12.86;67.41
49461;BME280;35355;49.198;-0.368;2023-09-30T05:47:44;102023.06;;;12.86;67.38
49461;BME280;35355;49.198;-0.368;2023-09-30T05:50:10;102005.47;;;12.81;67.33
49461;BME280;35355;49.198;-0.368;2023-09-30T05:52:40;101996.16;;;12.82;67.38
49461;BME280;35355;49.198;-0.368;2023-09-30T05:55:06;102004.97;;;12.85;67.38
49461;BME280;35355;49.198;-0.368;2023-09-30T05:57:39;102003.88;;;12.86;67.43
49461;BME280;35355;49.198;-0.368;2023-09-30T06:00:06;102016.25;;;12.88;67.35
49461;BME280;35355;49.198;-0.368;2023-09-30T06:02:53;102016.50;;;12.87;67.33
49461;BME280;35355;49.198;-0.368;2023-09-30T06:05:19;102015.56;;;12.81;67.19
49461;BME280;35355;49.198;-0.368;2023-09-30T06:07:48;102008.09;;;12.76;67.18
49461;BME280;35355;49.198;-0.368;2023-09-30T06:10:14;102005.09;;;12.78;67.42
49461;BME280;35355;49.198;-0.368;2023-09-30T06:12:50;102004.28;;;12.77;67.45
49461;BME280;35355;49.198;-0.368;2023-09-30T06:15:23;102004.28;;;12.77;67.85
49461;BME280;35355;49.198;-0.368;2023-09-30T06:17:52;102019.50;;;12.85;67.98
49461;BME280;35355;49.198;-0.368;2023-09-30T06:20:18;102029.72;;;12.90;67.82
49461;BME280;35355;49.198;-0.368;2023-09-30T06:22:44;102029.22;;;12.93;67.61
49461;BME280;35355;49.198;-0.368;2023-09-30T06:25:15;102022.44;;;12.95;67.43
49461;BME280;35355;49.198;-0.368;2023-09-30T06:27:50;102026.22;;;12.94;67.31
49461;BME280;35355;49.198;-0.368;2023-09-30T06:30:17;102034.22;;;12.96;67.61
49461;BME280;35355;49.198;-0.368;2023-09-30T06:32:43;102034.81;;;12.98;67.85
49461;BME280;35355;49.198;-0.368;2023-09-30T06:35:09;102036.44;;;12.99;67.68
49461;BME280;35355;49.198;-0.368;2023-09-30T06:37:41;102029.91;;;13.00;67.80
49461;BME280;35355;49.198;-0.368;2023-09-30T06:40:07;102035.75;;;13.04;67.55
49461;BME280;35355;49.198;-0.368;2023-09-30T06:42:34;102045.34;;;13.06;67.80
49461;BME280;35355;49.198;-0.368;2023-09-30T06:45:01;102039.31;;;13.04;67.53
49461;BME280;35355;49.198;-0.368;2023-09-30T06:47:26;102036.56;;;13.04;67.34
49461;BME280;35355;49.198;-0.368;2023-09-30T06:49:53;102019.75;;;13.01;67.79
49461;BME280;35355;49.198;-0.368;2023-09-30T06:52:18;102022.94;;;13.09;67.97
49461;BME280;35355;49.198;-0.368;2023-09-30T06:54:45;102046.03;;;13.13;67.80
49461;BME280;35355;49.198;-0.368;2023-09-30T06:57:13;102045.53;;;13.16;67.81
49461;BME280;35355;49.198;-0.368;2023-09-30T06:59:39;102059.59;;;13.20;67.62
49461;BME280;35355;49.198;-0.368;2023-09-30T07:02:04;102056.63;;;13.22;67.92
49461;BME280;35355;49.198;-0.368;2023-09-30T07:04:30;102050.88;;;13.23;67.83
49461;BME280;35355;49.198;-0.368;2023-09-30T07:06:56;102045.72;;;13.27;67.81
49461;BME280;35355;49.198;-0.368;2023-09-30T07:09:21;102041.97;;;13.33;68.10
49461;BME280;35355;49.198;-0.368;2023-09-30T07:11:46;102053.66;;;13.40;67.89
49461;BME280;35355;49.198;-0.368;2023-09-30T07:14:19;102060.91;;;13.46;67.84
49461;BME280;35355;49.198;-0.368;2023-09-30T07:16:45;102065.66;;;13.51;67.56
49461;BME280;35355;49.198;-0.368;2023-09-30T07:19:13;102068.13;;;13.53;67.86
49461;BME280;35355;49.198;-0.368;2023-09-30T07:21:39;102077.03;;;13.60;67.66
49461;BME280;35355;49.198;-0.368;2023-09-30T07:24:05;102082.59;;;13.65;67.74
49461;BME280;35355;49.198;-0.368;2023-09-30T07:26:31;102089.50;;;13.67;67.53
49461;BME280;35355;49.198;-0.368;2023-09-30T07:28:56;102081.59;;;13.71;67.39
49461;BME280;35355;49.198;-0.368;2023-09-30T07:31:26;102079.19;;;13.75;67.65
49461;BME280;35355;49.198;-0.368;2023-09-30T07:33:51;102080.13;;;13.80;67.60
49461;BME280;35355;49.198;-0.368;2023-09-30T07:36:17;102067.28;;;13.86;67.14
49461;BME280;35355;49.198;-0.368;2023-09-30T07:38:43;102054.22;;;13.93;67.43
49461;BME280;35355;49.198;-0.368;2023-09-30T07:41:08;102072.50;;;14.04;67.47
49461;BME280;35355;49.198;-0.368;2023-09-30T07:43:35;102082.22;;;14.12;67.32
49461;BME280;35355;49.198;-0.368;2023-09-30T07:46:07;102073.81;;;14.19;67.11
49461;BME280;35355;49.198;-0.368;2023-09-30T07:48:33;102067.34;;;14.30;67.31
49461;BME280;35355;49.198;-0.368;2023-09-30T07:51:00;102061.09;;;14.35;66.99
49461;BME280;35355;49.198;-0.368;2023-09-30T07:53:26;102063.97;;;14.45;66.61
49461;BME280;35355;49.198;-0.368;2023-09-30T07:55:51;102075.84;;;14.51;66.52
49461;BME280;35355;49.198;-0.368;2023-09-30T07:58:17;102086.66;;;14.57;66.33
49461;BME280;35355;49.198;-0.368;2023-09-30T08:00:42;102076.59;;;14.63;66.25
49461;BME280;35355;49.198;-0.368;2023-09-30T08:03:08;102066.47;;;14.69;66.33
49461;BME280;35355;49.198;-0.368;2023-09-30T08:05:36;102078.69;;;14.78;66.27
49461;BME280;35355;49.198;-0.368;2023-09-30T08:08:04;102074.38;;;14.82;66.12
49461;BME280;35355;49.198;-0.368;2023-09-30T08:10:31;102078.31;;;14.91;66.45
49461;BME280;35355;49.198;-0.368;2023-09-30T08:12:57;102073.44;;;14.99;66.11
49461;BME280;35355;49.198;-0.368;2023-09-30T08:15:24;102071.88;;;15.08;66.45
49461;BME280;35355;49.198;-0.368;2023-09-30T08:17:49;102075.00;;;15.17;66.30
49461;BME280;35355;49.198;-0.368;2023-09-30T08:20:15;102075.03;;;15.22;66.42
49461;BME280;35355;49.198;-0.368;2023-09-30T08:22:43;102076.78;;;15.33;66.28
49461;BME280;35355;49.198;-0.368;2023-09-30T08:25:09;102080.44;;;15.44;66.09
49461;BME280;35355;49.198;-0.368;2023-09-30T08:27:36;102076.69;;;15.50;65.92
49461;BME280;35355;49.198;-0.368;2023-09-30T08:30:06;102083.59;;;15.58;65.98
49461;BME280;35355;49.198;-0.368;2023-09-30T08:32:36;102081.47;;;15.65;65.92
49461;BME280;35355;49.198;-0.368;2023-09-30T08:35:02;102093.38;;;15.76;65.52
49461;BME280;35355;49.198;-0.368;2023-09-30T08:37:31;102110.28;;;15.85;65.46
49461;BME280;35355;49.198;-0.368;2023-09-30T08:39:57;102109.22;;;15.91;65.13
49461;BME280;35355;49.198;-0.368;2023-09-30T08:42:22;102108.16;;;15.97;65.22
49461;BME280;35355;49.198;-0.368;2023-09-30T08:44:51;102100.16;;;15.95;65.21
49461;BME280;35355;49.198;-0.368;2023-09-30T08:47:19;102098.59;;;16.10;65.15
49461;BME280;35355;49.198;-0.368;2023-09-30T08:49:46;102102.78;;;16.18;65.09
49461;BME280;35355;49.198;-0.368;2023-09-30T08:52:16;102093.44;;;16.24;64.78
49461;BME280;35355;49.198;-0.368;2023-09-30T08:54:42;102093.75;;;16.33;64.97
49461;BME280;35355;49.198;-0.368;2023-09-30T08:57:09;102084.44;;;16.39;64.85
49461;BME280;35355;49.198;-0.368;2023-09-30T08:59:35;102094.69;;;16.48;65.02
49461;BME280;35355;49.198;-0.368;2023-09-30T09:02:01;102093.31;;;16.56;64.77
49461;BME280;35355;49.198;-0.368;2023-09-30T09:04:26;102098.88;;;16.66;64.48
49461;BME280;35355;49.198;-0.368;2023-09-30T09:06:53;102089.28;;;16.74;64.61
49461;BME280;35355;49.198;-0.368;2023-09-30T09:09:20;102092.34;;;16.83;64.75
49461;BME280;35355;49.198;-0.368;2023-09-30T09:11:48;102087.13;;;16.92;64.50
49461;BME280;35355;49.198;-0.368;2023-09-30T09:14:14;102095.44;;;17.02;64.25
49461;BME280;35355;49.198;-0.368;2023-09-30T09:16:55;102095.47;;;17.07;64.60
49461;BME280;35355;49.198;-0.368;2023-09-30T09:19:21;102089.13;;;17.12;63.86
49461;BME280;35355;49.198;-0.368;2023-09-30T09:21:57;102079.78;;;17.23;64.11
49461;BME280;35355;49.198;-0.368;2023-09-30T09:24:37;102080.34;;;17.30;64.39
49461;BME280;35355;49.198;-0.368;2023-09-30T09:29:33;102079.78;;;17.44;64.00
49461;BME280;35355;49.198;-0.368;2023-09-30T09:34:34;102078.38;;;17.57;63.76
49461;BME280;35355;49.198;-0.368;2023-09-30T09:37:12;102070.94;;;17.62;64.22
49461;BME280;35355;49.198;-0.368;2023-09-30T09:39:39;102070.66;;;17.69;63.80
49461;BME280;35355;49.198;-0.368;2023-09-30T09:42:07;102081.72;;;17.79;63.98
49461;BME280;35355;49.198;-0.368;2023-09-30T09:44:36;102076.44;;;17.83;63.56
49461;BME280;35355;49.198;-0.368;2023-09-30T09:47:05;102075.06;;;17.91;63.88
49461;BME280;35355;49.198;-0.368;2023-09-30T09:49:32;102076.19;;;17.95;63.68
49461;BME280;35355;49.198;-0.368;2023-09-30T09:51:58;102065.94;;;18.00;63.81
49461;BME280;35355;49.198;-0.368;2023-09-30T09:54:29;102077.00;;;18.05;64.01
49461;BME280;35355;49.198;-0.368;2023-09-30T09:56:56;102067.03;;;18.10;63.78
49461;BME280;35355;49.198;-0.368;2023-09-30T09:59:23;102066.19;;;18.14;63.89
49461;BME280;35355;49.198;-0.368;2023-09-30T10:01:49;102065.63;;;18.22;64.02
49461;BME280;35355;49.198;-0.368;2023-09-30T10:04:14;102057.28;;;18.28;63.90
49461;BME280;35355;49.198;-0.368;2023-09-30T10:06:44;102063.63;;;18.33;63.92
49461;BME280;35355;49.198;-0.368;2023-09-30T10:09:14;102065.53;;;18.38;63.69
49461;BME280;35355;49.198;-0.368;2023-09-30T10:11:41;102068.88;;;18.40;63.31
49461;BME280;35355;49.198;-0.368;2023-09-30T10:14:07;102058.06;;;18.49;63.49
49461;BME280;35355;49.198;-0.368;2023-09-30T10:21:39;102032.59;;;18.52;63.39
49461;BME280;35355;49.198;-0.368;2023-09-30T10:29:48;102033.59;;;18.71;62.74
49461;BME280;35355;49.198;-0.368;2023-09-30T10:32:13;102027.22;;;18.76;62.44
49461;BME280;35355;49.198;-0.368;2023-09-30T10:34:47;102037.47;;;18.75;62.89
49461;BME280;35355;49.198;-0.368;2023-09-30T10:37:20;102033.81;;;18.85;62.68
49461;BME280;35355;49.198;-0.368;2023-09-30T10:39:56;102021.34;;;18.88;62.67
49461;BME280;35355;49.198;-0.368;2023-09-30T10:42:48;102028.50;;;18.94;62.90
49461;BME280;35355;49.198;-0.368;2023-09-30T10:45:43;102017.41;;;18.99;63.03
49461;BME280;35355;49.198;-0.368;2023-09-30T10:50:57;101999.94;;;19.04;61.93
49461;BME280;35355;49.198;-0.368;2023-09-30T10:53:29;102007.44;;;19.03;61.22
49461;BME280;35355;49.198;-0.368;2023-09-30T10:55:59;101999.38;;;19.07;61.43
49461;BME280;35355;49.198;-0.368;2023-09-30T10:58:51;101999.63;;;19.10;61.75
49461;BME280;35355;49.198;-0.368;2023-09-30T11:01:22;102010.94;;;19.14;61.03
49461;BME280;35355;49.198;-0.368;2023-09-30T11:03:49;102008.47;;;19.13;60.17
49461;BME280;35355;49.198;-0.368;2023-09-30T11:06:20;102005.09;;;19.21;59.71
49461;BME280;35355;49.198;-0.368;2023-09-30T11:08:55;102001.19;;;19.22;60.15
49461;BME280;35355;49.198;-0.368;2023-09-30T11:11:41;102003.94;;;19.22;60.26
49461;BME280;35355;49.198;-0.368;2023-09-30T11:14:30;101998.97;;;19.24;60.24
49461;BME280;35355;49.198;-0.368;2023-09-30T11:17:03;101990.38;;;19.25;59.86
49461;BME280;35355;49.198;-0.368;2023-09-30T11:19:46;101994.47;;;19.28;60.58
49461;BME280;35355;49.198;-0.368;2023-09-30T11:22:15;101991.16;;;19.31;59.34
49461;BME280;35355;49.198;-0.368;2023-09-30T11:24:41;101992.78;;;19.32;58.98
49461;BME280;35355;49.198;-0.368;2023-09-30T11:27:07;101993.63;;;19.33;58.66
49461;BME280;35355;49.198;-0.368;2023-09-30T11:29:32;101990.03;;;19.32;58.38
49461;BME280;35355;49.198;-0.368;2023-09-30T11:31:57;101984.78;;;19.31;58.06
49461;BME280;35355;49.198;-0.368;2023-09-30T11:34:36;101977.88;;;19.28;58.83
49461;BME280;35355;49.198;-0.368;2023-09-30T11:37:03;101988.69;;;19.30;57.47
49461;BME280;35355;49.198;-0.368;2023-09-30T11:39:29;101983.97;;;19.30;57.51
49461;BME280;35355;49.198;-0.368;2023-09-30T11:41:56;101985.63;;;19.31;57.44
49461;BME280;35355;49.198;-0.368;2023-09-30T11:44:26;101987.81;;;19.34;57.49
49461;BME280;35355;49.198;-0.368;2023-09-30T11:49:33;101979.22;;;19.36;57.80
49461;BME280;35355;49.198;-0.368;2023-09-30T11:52:13;101976.97;;;19.38;60.15
49461;BME280;35355;49.198;-0.368;2023-09-30T11:54:44;101978.34;;;19.40;58.17
49461;BME280;35355;49.198;-0.368;2023-09-30T11:57:14;101977.22;;;19.41;57.73
49461;BME280;35355;49.198;-0.368;2023-09-30T11:59:43;101966.66;;;19.43;57.48
49461;BME280;35355;49.198;-0.368;2023-09-30T12:02:11;101966.38;;;19.45;57.30
49461;BME280;35355;49.198;-0.368;2023-09-30T12:04:38;101966.38;;;19.45;57.67
49461;BME280;35355;49.198;-0.368;2023-09-30T12:07:04;101956.13;;;19.45;57.37
49461;BME280;35355;49.198;-0.368;2023-09-30T12:09:29;101958.06;;;19.45;57.55
49461;BME280;35355;49.198;-0.368;2023-09-30T12:11:56;101972.69;;;19.51;57.67
49461;BME280;35355;49.198;-0.368;2023-09-30T12:14:24;101950.53;;;19.51;57.67
49461;BME280;35355;49.198;-0.368;2023-09-30T12:16:49;101957.97;;;19.55;57.39
49461;BME280;35355;49.198;-0.368;2023-09-30T12:19:19;101952.94;;;19.57;56.86
49461;BME280;35355;49.198;-0.368;2023-09-30T12:21:46;101942.72;;;19.58;57.23
49461;BME280;35355;49.198;-0.368;2023-09-30T12:24:13;101929.97;;;19.57;57.42
49461;BME280;35355;49.198;-0.368;2023-09-30T12:26:44;101928.28;;;19.61;57.79
49461;BME280;35355;49.198;-0.368;2023-09-30T12:29:19;101930.44;;;19.64;57.60
49461;BME280;35355;49.198;-0.368;2023-09-30T12:31:49;101928.19;;;19.66;57.16
49461;BME280;35355;49.198;-0.368;2023-09-30T12:34:15;101929.84;;;19.67;56.89
49461;BME280;35355;49.198;-0.368;2023-09-30T12:36:41;101929.03;;;19.67;56.78
49461;BME280;35355;49.198;-0.368;2023-09-30T12:39:07;101935.63;;;19.71;56.73
49461;BME280;35355;49.198;-0.368;2023-09-30T12:41:43;101928.75;;;19.68;56.96
49461;BME280;35355;49.198;-0.368;2023-09-30T12:44:10;101919.84;;;19.71;57.06
49461;BME280;35355;49.198;-0.368;2023-09-30T12:46:37;101926.50;;;19.70;57.19
49461;BME280;35355;49.198;-0.368;2023-09-30T12:49:08;101923.13;;;19.73;57.33
49461;BME280;35355;49.198;-0.368;2023-09-30T12:51:35;101923.97;;;19.74;56.49
49461;BME280;35355;49.198;-0.368;2023-09-30T12:54:01;101924.78;;;19.74;56.15
49461;BME280;35355;49.198;-0.368;2023-09-30T12:56:26;101905.69;;;19.73;56.24
49461;BME280;35355;49.198;-0.368;2023-09-30T12:58:54;101923.13;;;19.78;56.38
49461;BME280;35355;49.198;-0.368;2023-09-30T13:01:20;101910.59;;;19.81;56.31
49461;BME280;35355;49.198;-0.368;2023-09-30T13:03:46;101914.22;;;19.82;56.22